METAR AND TAF INFORMATION


GOBD 202130Z 34009KT 8000 NSC 22/18 Q1010 NOSIG
GOBD 202100Z 35012KT 8000 NSC 22/18 Q1010 NOSIG
TAF GOBD 201730Z 2018/2124 36014KT CAVOK

 AIRPORT MAP

 RUNWAY INFORMATION

 AIRPORT FREQUENCIES

 AIRPORT NEAR NAVIGATION AIDS